Time;durP1;ratioP1;P1;durP2;ratioP2;P2;SDS_P1;SDS_P2;PMS_P1;PMS_P2;Temp;Humidity;BMP_temperature;BMP_pressure;BME280_temperature;BME280_humidity;BME280_pressure;Samples;Min_cycle;Max_cycle;Signal;HPM_P1;HPM_P2
2023/02/15 00:00:12;;;;;;;16.80;12.10;;;8.00;99.90;;;;;;5055198;28;20489;-73
2023/02/15 00:02:38;;;;;;;17.83;12.30;;;8.00;99.90;;;;;;5054175;28;20849;-73
2023/02/15 00:05:04;;;;;;;17.40;12.27;;;8.00;99.90;;;;;;5054033;28;20493;-73
2023/02/15 00:07:30;;;;;;;18.80;11.80;;;8.00;99.90;;;;;;5053702;28;20462;-73
2023/02/15 00:09:56;;;;;;;19.67;12.40;;;8.00;99.90;;;;;;5054054;28;20403;-73
2023/02/15 00:12:22;;;;;;;19.73;12.67;;;8.00;99.90;;;;;;5054005;28;20492;-73
2023/02/15 00:14:48;;;;;;;19.10;12.03;;;8.00;99.90;;;;;;5037347;28;20541;-73
2023/02/15 00:17:20;;;;;;;17.27;11.83;;;7.90;99.90;;;;;;5054919;28;20230;-73
2023/02/15 00:19:46;;;;;;;19.43;12.63;;;8.00;99.90;;;;;;5053727;28;20453;-73
2023/02/15 00:22:15;;;;;;;16.67;11.50;;;8.00;99.90;;;;;;5037253;28;20459;-73
2023/02/15 00:24:40;;;;;;;17.23;12.17;;;7.90;99.90;;;;;;5053514;28;20163;-73
2023/02/15 00:27:08;;;;;;;17.30;12.10;;;7.90;99.90;;;;;;5054589;28;20557;-73
2023/02/15 00:29:34;;;;;;;16.10;12.37;;;7.90;99.90;;;;;;5053595;28;20435;-73
2023/02/15 00:32:02;;;;;;;18.47;12.23;;;7.90;99.90;;;;;;5053654;28;20808;-73
2023/02/15 00:34:31;;;;;;;19.23;13.07;;;7.90;99.90;;;;;;5053439;28;20470;-73
2023/02/15 00:36:59;;;;;;;19.67;13.00;;;7.90;99.90;;;;;;5053404;28;20470;-73
2023/02/15 00:39:27;;;;;;;19.33;13.00;;;7.90;99.90;;;;;;5036906;28;20464;-73
2023/02/15 00:41:52;;;;;;;18.43;12.23;;;7.90;99.90;;;;;;5053059;28;20536;-73
2023/02/15 00:44:24;;;;;;;17.77;12.37;;;7.90;99.90;;;;;;5036769;28;20493;-73
2023/02/15 00:46:52;;;;;;;21.37;13.80;;;7.90;99.90;;;;;;5036534;28;20488;-73
2023/02/15 00:49:20;;;;;;;20.67;12.50;;;7.80;99.90;;;;;;5036754;28;20792;-73
2023/02/15 00:51:48;;;;;;;20.67;12.50;;;7.90;99.90;;;;;;5036716;28;20958;-72
2023/02/15 00:54:17;;;;;;;20.30;13.20;;;7.80;99.90;;;;;;5054173;28;20422;-73
2023/02/15 00:56:45;;;;;;;19.47;13.93;;;7.80;99.90;;;;;;5053064;28;20430;-73
2023/02/15 00:59:12;;;;;;;20.40;13.00;;;7.80;99.90;;;;;;5054097;28;20475;-73
2023/02/15 01:01:38;;;;;;;18.70;12.47;;;7.80;99.90;;;;;;5020237;28;20434;-73
2023/02/15 01:04:06;;;;;;;19.90;12.93;;;7.80;99.90;;;;;;5053141;28;20421;-73
2023/02/15 01:06:34;;;;;;;20.97;13.40;;;7.80;99.90;;;;;;5052700;28;20465;-73
2023/02/15 01:09:01;;;;;;;20.23;12.20;;;7.80;99.90;;;;;;5020072;28;20422;-73
2023/02/15 01:11:27;;;;;;;20.80;13.10;;;7.80;99.90;;;;;;5036251;28;20441;-73
2023/02/15 01:13:55;;;;;;;20.83;13.33;;;7.80;99.90;;;;;;5036316;28;20429;-73
2023/02/15 01:16:24;;;;;;;22.83;13.67;;;7.80;99.90;;;;;;5052806;28;20494;-73
2023/02/15 01:18:54;;;;;;;20.47;13.40;;;7.80;99.90;;;;;;5019771;28;20450;-73
2023/02/15 01:21:22;;;;;;;24.43;15.43;;;7.80;99.90;;;;;;5052605;28;20485;-73
2023/02/15 01:23:49;;;;;;;19.67;13.30;;;7.80;99.90;;;;;;5052486;28;20414;-73
2023/02/15 01:26:18;;;;;;;16.50;12.10;;;7.80;99.90;;;;;;5036016;28;20873;-73
2023/02/15 01:28:47;;;;;;;17.80;13.50;;;7.70;99.90;;;;;;5052707;28;20464;-73
2023/02/15 01:31:21;;;;;;;18.00;13.53;;;7.70;99.90;;;;;;5052593;28;20434;-73
2023/02/15 01:33:49;;;;;;;19.13;13.23;;;7.70;99.90;;;;;;5053406;28;20464;-73
2023/02/15 01:36:18;;;;;;;20.77;13.30;;;7.70;99.90;;;;;;5050392;22;20508;-73
2023/02/15 01:38:49;;;;;;;19.17;13.23;;;7.70;99.90;;;;;;4972838;28;20512;-73
2023/02/15 01:41:25;;;;;;;21.33;13.30;;;7.70;99.90;;;;;;4953620;29;20419;-73
2023/02/15 01:44:00;;;;;;;22.10;14.57;;;7.70;99.90;;;;;;4954454;28;20430;-73
2023/02/15 01:46:37;;;;;;;23.00;14.73;;;7.70;99.90;;;;;;4985959;28;20450;-73
2023/02/15 01:49:18;;;;;;;22.80;14.07;;;7.70;99.90;;;;;;4953130;29;20522;-74
2023/02/15 01:51:48;;;;;;;24.03;14.10;;;7.70;99.90;;;;;;4961549;28;20784;-75
2023/02/15 01:54:29;;;;;;;20.30;13.57;;;7.70;99.90;;;;;;4928387;29;20776;-74
2023/02/15 01:57:02;;;;;;;23.50;13.77;;;7.70;99.90;;;;;;4958898;28;20466;-73
2023/02/15 01:59:32;;;;;;;24.97;16.73;;;7.70;99.90;;;;;;4953214;28;20508;-73
2023/02/15 02:02:04;;;;;;;18.30;12.50;;;7.60;99.90;;;;;;4962563;28;20434;-73
2023/02/15 02:04:51;;;;;;;20.10;13.80;;;7.60;99.90;;;;;;4945246;29;20424;-73
2023/02/15 02:07:22;;;;;;;18.40;12.30;;;7.60;99.90;;;;;;4945850;28;20482;-73
2023/02/15 02:09:50;;;;;;;22.20;15.07;;;7.60;99.90;;;;;;4956917;28;20504;-72
2023/02/15 02:12:18;;;;;;;20.90;13.70;;;7.60;99.90;;;;;;4968743;28;20425;-73
2023/02/15 02:14:50;;;;;;;19.63;13.93;;;7.60;99.90;;;;;;4929330;29;20408;-73
2023/02/15 02:17:32;;;;;;;17.90;13.03;;;7.60;99.90;;;;;;4931864;28;20458;-73
2023/02/15 02:20:25;;;;;;;21.60;13.20;;;7.60;99.90;;;;;;4935797;28;20786;-74
2023/02/15 02:23:23;;;;;;;24.40;14.33;;;7.60;99.90;;;;;;4944972;28;20971;-73
2023/02/15 02:25:58;;;;;;;21.13;14.00;;;7.50;99.90;;;;;;4938076;28;20414;-74
2023/02/15 02:28:48;;;;;;;24.73;15.23;;;7.60;99.90;;;;;;4940678;28;20512;-73
2023/02/15 02:31:32;;;;;;;23.30;14.10;;;7.50;99.90;;;;;;4954805;28;20425;-74
2023/02/15 02:34:21;;;;;;;21.17;14.00;;;7.50;99.90;;;;;;4947031;28;20540;-73
2023/02/15 02:37:10;;;;;;;21.37;13.67;;;7.50;99.90;;;;;;4956676;28;20469;-73
2023/02/15 02:39:44;;;;;;;25.10;15.43;;;7.50;99.90;;;;;;4940224;29;20824;-73
2023/02/15 02:42:22;;;;;;;23.10;14.07;;;7.50;99.90;;;;;;4965701;28;20461;-73
2023/02/15 02:45:03;;;;;;;19.87;13.63;;;7.50;99.90;;;;;;4949594;29;20411;-73
2023/02/15 02:47:57;;;;;;;21.73;13.17;;;7.50;99.90;;;;;;4947261;28;20473;-75
2023/02/15 02:50:28;;;;;;;21.60;14.10;;;7.50;99.90;;;;;;4974993;28;20408;-74
2023/02/15 02:52:57;;;;;;;21.47;14.10;;;7.50;99.90;;;;;;4969434;28;20469;-74
2023/02/15 02:55:45;;;;;;;21.83;14.13;;;7.40;99.90;;;;;;4972681;28;20789;-74
2023/02/15 02:58:22;;;;;;;22.43;14.20;;;7.40;99.90;;;;;;4972723;28;20418;-74
2023/02/15 03:01:01;;;;;;;20.60;14.00;;;7.40;99.90;;;;;;4974925;28;20437;-74
2023/02/15 03:03:34;;;;;;;21.17;14.23;;;7.40;99.90;;;;;;4956135;28;20443;-74
2023/02/15 03:06:20;;;;;;;23.73;14.93;;;7.40;99.90;;;;;;4971188;28;20453;-74
2023/02/15 03:08:55;;;;;;;22.57;14.80;;;7.40;99.90;;;;;;4955477;28;20982;-74
2023/02/15 03:11:24;;;;;;;18.73;13.07;;;7.40;99.90;;;;;;4974492;28;20423;-74
2023/02/15 03:13:51;;;;;;;21.20;15.03;;;7.40;99.90;;;;;;4991067;28;20412;-74
2023/02/15 03:16:27;;;;;;;22.67;15.47;;;7.40;99.90;;;;;;4991579;28;21167;-74
2023/02/15 03:19:08;;;;;;;20.80;13.90;;;7.40;99.90;;;;;;4991703;28;20447;-74
2023/02/15 03:21:37;;;;;;;20.27;13.83;;;7.40;99.90;;;;;;4975360;28;20408;-74
2023/02/15 03:24:14;;;;;;;20.70;14.37;;;7.40;99.90;;;;;;4975000;28;20411;-74
2023/02/15 03:26:48;;;;;;;21.67;15.27;;;7.40;99.90;;;;;;4975019;28;20583;-74
2023/02/15 03:29:16;;;;;;;19.97;13.80;;;7.40;99.90;;;;;;4959297;28;20409;-74
2023/02/15 03:31:46;;;;;;;19.33;13.73;;;7.40;99.90;;;;;;4975139;28;20440;-75
2023/02/15 03:34:16;;;;;;;22.93;15.60;;;7.40;99.90;;;;;;4975046;28;20483;-74
2023/02/15 03:37:00;;;;;;;20.53;14.13;;;7.30;99.90;;;;;;4946124;29;20473;-74
2023/02/15 03:39:51;;;;;;;22.17;14.47;;;7.30;99.90;;;;;;4960793;28;20986;-74
2023/02/15 03:42:32;;;;;;;22.50;15.50;;;7.40;99.90;;;;;;4975204;28;20413;-74
2023/02/15 03:45:11;;;;;;;19.80;13.80;;;7.30;99.90;;;;;;4990988;28;20497;-74
2023/02/15 03:47:41;;;;;;;23.23;14.47;;;7.30;99.90;;;;;;4990763;28;20473;-74
2023/02/15 03:51:33;;;;;;;21.50;14.57;;;7.30;99.90;;;;;;4971055;28;20422;-74
2023/02/15 03:53:01;;;;;;;18.77;13.63;;;7.30;99.90;;;;;;4956462;28;20428;-74
2023/02/15 03:55:28;;;;;;;22.67;13.57;;;7.30;99.90;;;;;;4938500;28;20454;-74
2023/02/15 04:03:43;;;;;;;22.47;14.50;;;7.30;99.90;;;;;;4923153;29;20417;-74
2023/02/15 04:06:09;;;;;;;21.10;14.63;;;7.30;99.90;;;;;;4960762;28;20488;-74
2023/02/15 04:11:24;;;;;;;24.80;15.00;;;7.20;99.90;;;;;;4951406;28;20467;-74
2023/02/15 04:13:56;;;;;;;23.20;14.70;;;7.20;99.90;;;;;;4954050;28;20469;-74
2023/02/15 04:16:25;;;;;;;23.23;14.63;;;7.20;99.90;;;;;;4970455;28;20528;-74
2023/02/15 04:27:09;;;;;;;20.80;14.13;;;7.20;99.90;;;;;;4973437;28;21155;-72
2023/02/15 04:29:37;;;;;;;22.60;14.07;;;7.20;99.90;;;;;;4975491;28;20428;-75
2023/02/15 04:32:04;;;;;;;25.90;15.67;;;7.20;99.90;;;;;;4957635;28;20489;-75
2023/02/15 04:34:32;;;;;;;19.67;13.50;;;7.20;99.90;;;;;;4975421;28;20436;-73
2023/02/15 04:36:58;;;;;;;23.60;16.03;;;7.20;99.90;;;;;;4975057;28;20447;-73
2023/02/15 04:39:24;;;;;;;24.30;14.60;;;7.20;99.90;;;;;;4957773;28;20470;-73
2023/02/15 04:41:50;;;;;;;21.77;14.83;;;7.20;99.90;;;;;;4941705;28;21010;-73
2023/02/15 04:44:21;;;;;;;22.83;14.77;;;7.20;99.90;;;;;;4974256;28;20436;-72
2023/02/15 04:46:47;;;;;;;21.30;13.70;;;7.20;99.90;;;;;;4973870;28;20816;-72
2023/02/15 04:49:15;;;;;;;20.13;14.50;;;7.20;99.90;;;;;;4975025;28;20420;-73
2023/02/15 04:51:41;;;;;;;23.27;14.83;;;7.20;99.90;;;;;;4974926;28;20412;-73
2023/02/15 04:54:07;;;;;;;23.53;15.80;;;7.20;99.90;;;;;;4956779;28;21046;-73
2023/02/15 04:56:34;;;;;;;22.30;14.77;;;7.10;99.90;;;;;;4973645;28;20441;-72
2023/02/15 04:59:03;;;;;;;22.93;14.73;;;7.10;99.90;;;;;;4989803;28;20161;-73
2023/02/15 05:01:31;;;;;;;28.30;17.10;;;7.10;99.90;;;;;;4989593;28;20397;-73
2023/02/15 05:03:59;;;;;;;21.70;13.60;;;7.10;99.90;;;;;;4989889;28;20535;-73
2023/02/15 05:06:25;;;;;;;23.20;15.00;;;7.10;99.90;;;;;;4989661;28;20526;-73
2023/02/15 05:08:51;;;;;;;19.90;14.17;;;7.10;99.90;;;;;;4966791;28;20204;-73
2023/02/15 05:11:17;;;;;;;22.63;13.67;;;7.10;99.90;;;;;;4982263;28;20425;-74
2023/02/15 05:13:45;;;;;;;19.77;13.77;;;7.10;99.90;;;;;;4960956;28;20441;-76
2023/02/15 05:16:11;;;;;;;24.27;15.60;;;7.10;99.90;;;;;;4960171;28;20459;-75
2023/02/15 05:18:37;;;;;;;21.13;14.47;;;7.10;99.90;;;;;;4939956;29;20428;-73
2023/02/15 05:21:04;;;;;;;20.60;14.90;;;7.10;99.90;;;;;;4969507;28;20461;-72
2023/02/15 05:23:34;;;;;;;21.40;14.57;;;7.10;99.90;;;;;;4929715;29;20185;-73
2023/02/15 05:28:45;;;;;;;23.90;14.13;;;7.10;99.90;;;;;;4969416;28;20457;-75
2023/02/15 05:31:13;;;;;;;23.57;14.20;;;7.00;99.90;;;;;;4954498;28;20428;-74
2023/02/15 05:33:40;;;;;;;23.23;14.63;;;7.00;99.90;;;;;;4954718;28;20446;-75
2023/02/15 05:36:07;;;;;;;22.00;14.57;;;7.00;99.90;;;;;;4961690;28;20453;-73
2023/02/15 05:38:37;;;;;;;20.90;13.57;;;7.00;99.90;;;;;;4972945;28;20453;-75
2023/02/15 05:41:07;;;;;;;22.70;14.60;;;7.00;99.90;;;;;;4972076;28;20430;-73
2023/02/15 05:43:33;;;;;;;22.60;13.97;;;7.00;99.90;;;;;;4970855;28;20465;-76
2023/02/15 05:45:59;;;;;;;24.20;15.50;;;7.00;99.90;;;;;;4935010;29;20941;-76
2023/02/15 05:48:26;;;;;;;25.63;15.10;;;7.00;99.90;;;;;;4935825;29;20816;-75
2023/02/15 05:51:09;;;;;;;24.33;15.23;;;7.00;99.90;;;;;;4934972;29;20462;-74
2023/02/15 05:53:37;;;;;;;22.03;15.20;;;7.00;99.90;;;;;;4934413;28;20434;-76
2023/02/15 05:56:08;;;;;;;21.80;14.27;;;7.00;99.90;;;;;;4954370;28;21833;-75
2023/02/15 05:58:41;;;;;;;21.87;14.10;;;7.00;99.90;;;;;;4973530;28;20788;-75
2023/02/15 06:01:15;;;;;;;23.45;14.63;;;7.00;99.90;;;;;;4972069;28;20420;-75
2023/02/15 06:03:44;;;;;;;23.73;14.93;;;7.00;99.90;;;;;;4956837;28;20572;-75
2023/02/15 06:06:13;;;;;;;24.50;15.80;;;6.90;99.90;;;;;;4956229;28;20508;-75
2023/02/15 06:08:42;;;;;;;22.33;14.93;;;6.90;99.90;;;;;;4973255;28;20496;-75
2023/02/15 06:11:08;;;;;;;21.50;14.50;;;6.90;99.90;;;;;;4972396;28;20910;-77
2023/02/15 06:13:35;;;;;;;22.73;14.52;;;6.90;99.90;;;;;;4972826;28;20448;-76
2023/02/15 06:16:04;;;;;;;25.90;15.00;;;6.90;99.90;;;;;;4946637;29;20189;-76
2023/02/15 06:18:30;;;;;;;20.53;14.00;;;6.90;99.90;;;;;;4951753;29;20473;-77
2023/02/15 06:20:58;;;;;;;23.33;15.20;;;6.90;99.90;;;;;;4954921;28;20422;-75
2023/02/15 06:23:24;;;;;;;21.53;14.30;;;6.90;99.90;;;;;;4936455;28;20942;-75
2023/02/15 06:25:50;;;;;;;23.57;14.13;;;6.90;99.90;;;;;;4952532;28;20453;-75
2023/02/15 06:28:19;;;;;;;22.23;14.50;;;6.90;99.90;;;;;;4977328;28;20548;-75
2023/02/15 06:30:47;;;;;;;21.92;14.18;;;6.90;99.90;;;;;;4973546;28;20784;-75
2023/02/15 06:33:13;;;;;;;26.60;15.47;;;6.90;99.90;;;;;;4992876;28;20178;-74
2023/02/15 06:35:39;;;;;;;24.47;14.90;;;6.90;99.90;;;;;;4972548;28;20433;-74
2023/02/15 06:38:05;;;;;;;25.57;14.60;;;6.80;99.90;;;;;;4953004;28;20532;-74
2023/02/15 06:40:31;;;;;;;23.33;15.33;;;6.80;99.90;;;;;;4955253;28;20426;-74
2023/02/15 06:42:59;;;;;;;18.83;13.57;;;6.80;99.90;;;;;;4955896;28;20472;-75
2023/02/15 06:45:28;;;;;;;23.10;15.20;;;6.80;99.90;;;;;;4956642;29;20516;-76
2023/02/15 06:47:56;;;;;;;19.83;13.60;;;6.80;99.90;;;;;;4956033;28;20214;-75
2023/02/15 06:50:26;;;;;;;23.13;15.70;;;6.80;99.90;;;;;;4955579;29;20417;-75
2023/02/15 06:52:59;;;;;;;22.43;13.63;;;6.80;99.90;;;;;;4955825;29;20440;-75
2023/02/15 06:55:28;;;;;;;23.63;14.52;;;6.80;99.90;;;;;;4955929;28;20619;-75
2023/02/15 06:57:58;;;;;;;20.60;14.27;;;6.80;99.90;;;;;;4955560;28;20252;-75
2023/02/15 07:00:27;;;;;;;20.27;14.37;;;6.80;99.90;;;;;;4956876;28;21026;-75
2023/02/15 07:02:58;;;;;;;24.10;15.27;;;6.70;99.90;;;;;;4974355;28;20562;-75
2023/02/15 07:05:31;;;;;;;20.57;13.77;;;6.70;99.90;;;;;;4974599;28;20429;-75
2023/02/15 07:08:03;;;;;;;25.17;15.53;;;6.80;99.90;;;;;;4975862;28;20476;-75
2023/02/15 07:10:31;;;;;;;20.50;14.30;;;6.80;99.90;;;;;;4952352;29;20508;-76
2023/02/15 07:12:57;;;;;;;23.13;14.60;;;6.70;99.90;;;;;;4920833;29;20978;-76
2023/02/15 07:15:26;;;;;;;22.83;14.30;;;6.70;99.90;;;;;;4952055;29;20403;-76
2023/02/15 07:17:56;;;;;;;23.65;14.55;;;6.70;99.90;;;;;;4937246;29;20590;-76
2023/02/15 07:20:23;;;;;;;23.17;14.77;;;6.70;99.90;;;;;;4951956;29;20187;-76
2023/02/15 07:22:51;;;;;;;23.80;14.73;;;6.70;99.90;;;;;;4952193;29;20414;-76
2023/02/15 07:25:18;;;;;;;24.52;15.75;;;6.70;99.90;;;;;;4961673;28;20860;-76
2023/02/15 07:27:44;;;;;;;23.20;14.33;;;6.70;99.90;;;;;;4969063;28;20224;-76
2023/02/15 07:30:13;;;;;;;22.33;13.53;;;6.70;99.90;;;;;;4969672;28;20410;-76
2023/02/15 07:33:22;;;;;;;22.10;14.57;;;6.70;99.90;;;;;;4969487;28;20499;-76
2023/02/15 07:35:27;;;;;;;24.33;14.17;;;6.70;99.90;;;;;;4952739;28;20425;-76
2023/02/15 07:37:54;;;;;;;20.38;13.95;;;6.70;99.90;;;;;;4952984;29;20488;-76
2023/02/15 07:40:23;;;;;;;22.00;15.30;;;6.70;99.90;;;;;;4988516;28;20712;-76
2023/02/15 07:42:51;;;;;;;19.67;12.90;;;6.70;99.90;;;;;;4958011;28;20424;-76
2023/02/15 07:45:17;;;;;;;20.08;14.70;;;6.70;99.90;;;;;;4942403;28;20240;-76
2023/02/15 07:47:48;;;;;;;23.90;14.90;;;6.60;99.90;;;;;;4958312;28;20218;-76
2023/02/15 07:50:19;;;;;;;20.40;14.20;;;6.60;99.90;;;;;;4974377;28;20416;-76
2023/02/15 07:52:45;;;;;;;20.80;14.10;;;6.60;99.90;;;;;;4958147;28;20945;-76
2023/02/15 07:55:15;;;;;;;20.20;13.90;;;6.60;99.90;;;;;;4974413;28;20946;-76
2023/02/15 07:57:48;;;;;;;21.10;13.50;;;6.60;99.90;;;;;;4974121;28;20451;-76
2023/02/15 08:00:21;;;;;;;21.60;13.93;;;6.70;99.90;;;;;;4973969;28;20953;-77
2023/02/15 08:03:12;;;;;;;18.40;12.60;;;6.60;99.90;;;;;;4973902;28;20759;-76
2023/02/15 08:05:43;;;;;;;18.40;13.03;;;6.60;99.90;;;;;;4973539;28;20518;-76
2023/02/15 08:08:30;;;;;;;21.30;13.20;;;6.60;99.90;;;;;;4974814;28;20444;-77
2023/02/15 08:11:26;;;;;;;20.80;13.60;;;6.60;99.90;;;;;;4957936;28;21008;-76
2023/02/15 08:13:54;;;;;;;23.03;14.47;;;6.60;99.90;;;;;;4941463;28;20423;-76
2023/02/15 08:16:31;;;;;;;21.03;13.13;;;6.60;99.90;;;;;;4957665;28;20456;-76
2023/02/15 08:18:58;;;;;;;19.60;13.80;;;6.60;99.90;;;;;;4957642;28;20954;-76
2023/02/15 08:21:34;;;;;;;20.10;13.60;;;6.60;99.90;;;;;;4973409;28;20455;-77
2023/02/15 08:24:01;;;;;;;22.33;13.27;;;6.60;99.90;;;;;;4956732;28;20484;-76
2023/02/15 08:26:30;;;;;;;19.60;12.57;;;6.60;99.90;;;;;;4973587;28;20506;-77
2023/02/15 08:28:57;;;;;;;21.93;13.47;;;6.60;99.90;;;;;;4957317;28;20449;-76
2023/02/15 08:31:27;;;;;;;18.98;12.80;;;6.60;99.90;;;;;;4970462;28;20432;-76
2023/02/15 08:33:59;;;;;;;21.02;13.95;;;6.60;99.90;;;;;;4989050;28;20203;-76
2023/02/15 08:36:28;;;;;;;19.60;13.23;;;6.60;99.90;;;;;;4989432;28;20205;-76
2023/02/15 08:38:57;;;;;;;17.63;12.60;;;6.60;99.90;;;;;;4973193;28;20444;-76
2023/02/15 08:41:26;;;;;;;17.70;11.70;;;6.50;99.90;;;;;;4973105;28;20199;-76
2023/02/15 08:43:54;;;;;;;22.52;14.38;;;6.50;99.90;;;;;;4989613;28;20181;-77
2023/02/15 08:46:21;;;;;;;24.07;13.80;;;6.60;99.90;;;;;;4972564;28;20279;-76
2023/02/15 08:48:50;;;;;;;19.40;13.50;;;6.50;99.90;;;;;;4970589;28;20476;-77
2023/02/15 08:51:25;;;;;;;20.00;13.10;;;6.60;99.90;;;;;;4935813;29;20776;-77
2023/02/15 08:53:54;;;;;;;21.45;14.32;;;6.60;99.90;;;;;;4985982;28;20481;-77
2023/02/15 08:56:25;;;;;;;19.23;13.07;;;6.60;99.90;;;;;;4989414;28;20266;-77
2023/02/15 08:58:55;;;;;;;18.10;13.03;;;6.60;99.90;;;;;;4941103;28;20213;-77
2023/02/15 09:01:24;;;;;;;19.77;12.40;;;6.50;99.90;;;;;;4971359;28;20956;-76
2023/02/15 09:03:54;;;;;;;19.30;12.93;;;6.50;99.90;;;;;;4972879;28;20571;-76
2023/02/15 09:06:24;;;;;;;18.73;13.00;;;6.50;99.90;;;;;;4973444;28;20941;-76
2023/02/15 09:08:53;;;;;;;20.38;13.25;;;6.50;99.90;;;;;;4953422;28;20468;-76
2023/02/15 09:11:25;;;;;;;18.33;12.90;;;6.50;99.90;;;;;;4969008;28;20169;-76
2023/02/15 09:13:58;;;;;;;18.53;13.03;;;6.60;99.90;;;;;;4954354;28;20476;-76
2023/02/15 09:16:28;;;;;;;17.60;12.67;;;6.60;99.90;;;;;;4969304;28;20854;-76
2023/02/15 09:18:57;;;;;;;19.47;12.53;;;6.60;99.90;;;;;;4953051;29;21129;-75
2023/02/15 09:21:24;;;;;;;20.67;13.57;;;6.60;99.90;;;;;;4969419;28;20462;-76
2023/02/15 09:23:59;;;;;;;18.00;13.03;;;6.60;99.90;;;;;;4954827;28;20410;-76
2023/02/15 09:26:30;;;;;;;21.30;13.87;;;6.60;99.90;;;;;;4969240;28;20541;-76
2023/02/15 09:29:01;;;;;;;21.20;14.73;;;6.60;99.90;;;;;;4952790;29;20827;-76
2023/02/15 09:31:30;;;;;;;18.37;11.83;;;6.60;99.90;;;;;;4982810;28;20918;-76
2023/02/15 09:33:56;;;;;;;19.95;12.70;;;6.60;99.90;;;;;;4988758;28;20440;-76
2023/02/15 09:36:36;;;;;;;21.45;12.95;;;6.70;99.90;;;;;;4988365;28;20692;-76
2023/02/15 09:39:13;;;;;;;18.80;12.50;;;6.70;99.90;;;;;;4933694;29;20644;-76
2023/02/15 09:41:58;;;;;;;18.07;12.77;;;6.70;99.90;;;;;;4933500;29;20446;-77
2023/02/15 09:44:29;;;;;;;20.70;13.80;;;6.70;99.90;;;;;;4933652;29;20950;-76
2023/02/15 09:47:39;;;;;;;18.90;12.60;;;6.70;99.90;;;;;;4949303;28;20445;-76
2023/02/15 09:50:14;;;;;;;18.70;12.20;;;6.70;99.90;;;;;;4933055;29;20491;-76
2023/02/15 09:52:43;;;;;;;21.30;13.50;;;6.70;99.90;;;;;;4917775;29;20473;-76
2023/02/15 09:55:31;;;;;;;18.43;12.30;;;6.70;99.90;;;;;;4958918;28;20916;-75
2023/02/15 09:58:24;;;;;;;20.40;11.50;;;6.70;99.90;;;;;;4971326;28;20455;-75
2023/02/15 10:01:10;;;;;;;16.93;11.53;;;6.70;99.90;;;;;;4969556;28;20508;-76
2023/02/15 10:03:57;;;;;;;19.60;12.13;;;6.70;99.90;;;;;;4971819;28;20412;-76
2023/02/15 10:06:41;;;;;;;16.70;12.23;;;6.70;99.90;;;;;;4971867;28;21148;-77
2023/02/15 10:09:33;;;;;;;16.53;11.60;;;6.80;99.90;;;;;;4972956;28;20424;-77
2023/02/15 10:12:40;;;;;;;18.40;12.40;;;6.80;99.90;;;;;;4972021;28;20420;-77
2023/02/15 10:15:15;;;;;;;17.73;11.90;;;6.80;99.90;;;;;;4949448;29;20835;-77
2023/02/15 10:18:18;;;;;;;21.77;13.38;;;6.80;99.90;;;;;;4917628;29;20472;-77
2023/02/15 10:21:23;;;;;;;17.73;11.90;;;6.80;99.90;;;;;;4934415;29;20170;-76
2023/02/15 10:23:58;;;;;;;19.60;11.83;;;6.80;99.90;;;;;;4947083;28;20588;-76
2023/02/15 10:26:47;;;;;;;18.23;11.50;;;6.80;99.90;;;;;;4953506;28;20443;-77
2023/02/15 10:29:37;;;;;;;15.47;11.20;;;6.90;99.90;;;;;;4953416;28;20780;-76
2023/02/15 10:32:25;;;;;;;17.95;11.20;;;6.90;99.90;;;;;;4986434;28;20453;-76
2023/02/15 10:35:12;;;;;;;21.85;12.10;;;6.90;99.90;;;;;;4987664;28;20185;-76
2023/02/15 10:37:40;;;;;;;17.23;11.73;;;6.90;99.90;;;;;;4986881;28;20217;-76
2023/02/15 10:40:22;;;;;;;20.70;12.30;;;7.00;99.90;;;;;;4971526;28;20920;-76
2023/02/15 10:43:13;;;;;;;16.90;10.85;;;7.00;99.90;;;;;;4987148;28;20415;-76
2023/02/15 10:46:10;;;;;;;20.10;11.63;;;7.00;99.90;;;;;;4971880;28;20181;-77
2023/02/15 10:48:36;;;;;;;17.40;11.13;;;7.00;99.90;;;;;;4972222;28;20488;-77
2023/02/15 10:51:08;;;;;;;20.58;12.20;;;7.00;99.90;;;;;;4973192;28;20445;-77
2023/02/15 10:53:53;;;;;;;21.77;12.57;;;7.00;99.90;;;;;;4978503;28;20581;-77
2023/02/15 10:56:48;;;;;;;17.67;12.43;;;7.10;99.90;;;;;;4955476;29;20471;-77
2023/02/15 10:59:26;;;;;;;17.90;11.17;;;7.10;99.90;;;;;;4973427;28;20428;-77
2023/02/15 11:01:59;;;;;;;19.55;12.00;;;7.10;99.90;;;;;;4941246;29;20523;-77
2023/02/15 11:04:50;;;;;;;18.10;11.40;;;7.10;99.90;;;;;;4985376;28;20195;-77
2023/02/15 11:07:38;;;;;;;19.73;11.50;;;7.10;99.90;;;;;;4973614;28;20245;-77
2023/02/15 11:10:41;;;;;;;15.67;10.60;;;7.20;99.90;;;;;;4971673;28;20631;-77
2023/02/15 11:13:17;;;;;;;21.07;12.00;;;7.20;99.90;;;;;;4977156;28;20429;-77
2023/02/15 11:15:59;;;;;;;18.90;11.70;;;7.20;99.90;;;;;;4975747;28;20467;-77
2023/02/15 11:18:37;;;;;;;21.47;12.60;;;7.20;99.90;;;;;;4942121;29;20469;-77
2023/02/15 11:21:25;;;;;;;16.33;11.00;;;7.20;99.90;;;;;;4971234;28;20784;-75
2023/02/15 11:23:53;;;;;;;17.27;11.37;;;7.30;99.90;;;;;;4979634;28;20856;-77
2023/02/15 11:26:53;;;;;;;17.33;9.90;;;7.30;99.90;;;;;;4956833;28;20437;-75
2023/02/15 11:29:29;;;;;;;16.80;11.30;;;7.30;99.90;;;;;;4953300;29;20477;-76
2023/02/15 11:32:02;;;;;;;16.53;10.67;;;7.30;99.90;;;;;;4977180;28;20464;-77
2023/02/15 11:34:55;;;;;;;18.57;11.90;;;7.30;99.90;;;;;;4955460;29;20448;-77
2023/02/15 11:37:29;;;;;;;17.67;11.60;;;7.30;99.90;;;;;;4962001;28;20471;-77
2023/02/15 11:39:57;;;;;;;17.93;11.53;;;7.30;99.90;;;;;;4961987;28;20429;-76
2023/02/15 11:42:25;;;;;;;17.23;11.13;;;7.40;99.90;;;;;;4963609;28;20477;-77
2023/02/15 11:45:17;;;;;;;17.20;11.13;;;7.40;99.90;;;;;;4977327;28;20531;-77
2023/02/15 11:47:43;;;;;;;16.50;10.90;;;7.40;99.90;;;;;;4936140;29;20518;-76
2023/02/15 11:50:22;;;;;;;16.40;11.93;;;7.50;99.90;;;;;;4971622;28;20516;-76
2023/02/15 11:52:50;;;;;;;16.73;10.93;;;7.50;99.90;;;;;;4962275;28;20455;-75
2023/02/15 11:55:23;;;;;;;20.57;11.37;;;7.50;99.90;;;;;;4944256;29;20468;-76
2023/02/15 11:58:17;;;;;;;15.00;10.43;;;7.50;99.90;;;;;;4969258;28;20497;-76
2023/02/15 12:00:47;;;;;;;14.80;10.80;;;7.50;99.90;;;;;;4987104;28;20433;-76
2023/02/15 12:03:24;;;;;;;15.50;10.47;;;7.50;99.90;;;;;;4970770;28;20429;-74
2023/02/15 12:06:00;;;;;;;17.50;11.17;;;7.50;99.90;;;;;;4966408;28;20435;-77
2023/02/15 12:08:41;;;;;;;17.30;10.87;;;7.60;99.90;;;;;;4948169;29;20828;-76
2023/02/15 12:11:20;;;;;;;15.80;10.77;;;7.60;99.90;;;;;;4923739;28;20589;-77
2023/02/15 12:14:01;;;;;;;15.93;9.80;;;7.60;99.90;;;;;;4976315;28;20852;-77
2023/02/15 12:16:32;;;;;;;16.63;10.77;;;7.70;99.90;;;;;;4939940;29;20465;-77
2023/02/15 12:19:00;;;;;;;16.60;10.87;;;7.60;99.90;;;;;;4946061;29;20450;-76
2023/02/15 12:21:39;;;;;;;14.87;9.80;;;7.70;99.90;;;;;;4963394;28;20478;-76
2023/02/15 12:24:21;;;;;;;15.60;10.40;;;7.70;99.90;;;;;;4937900;28;20434;-74
2023/02/15 12:27:04;;;;;;;13.70;9.97;;;7.70;99.90;;;;;;4957562;28;20489;-75
2023/02/15 12:29:41;;;;;;;15.40;9.60;;;7.70;99.90;;;;;;4953142;29;20510;-79
2023/02/15 12:32:18;;;;;;;13.17;10.30;;;7.70;99.90;;;;;;4987146;28;20428;-76
2023/02/15 12:34:47;;;;;;;13.63;9.80;;;7.80;99.90;;;;;;4968319;28;20459;-77
2023/02/15 12:37:25;;;;;;;17.90;11.53;;;7.80;99.90;;;;;;4941287;29;20528;-78
2023/02/15 12:39:58;;;;;;;17.67;10.90;;;7.80;99.90;;;;;;4938861;29;20947;-75
2023/02/15 12:42:25;;;;;;;15.80;10.60;;;7.80;99.90;;;;;;4936114;29;20408;-75
2023/02/15 12:44:57;;;;;;;15.70;10.33;;;7.80;99.90;;;;;;4965129;28;20532;-77
2023/02/15 12:47:26;;;;;;;15.17;10.33;;;7.90;99.90;;;;;;4934194;29;20466;-75
2023/02/15 12:50:16;;;;;;;17.60;11.00;;;7.90;99.90;;;;;;4937113;29;20469;-75
2023/02/15 12:52:47;;;;;;;14.47;9.60;;;7.90;99.90;;;;;;4949430;28;20956;-75
2023/02/15 12:55:25;;;;;;;12.10;9.50;;;7.90;99.90;;;;;;4948672;29;20525;-75
2023/02/15 12:58:26;;;;;;;13.67;10.27;;;8.00;99.90;;;;;;4939897;29;20867;-75
2023/02/15 13:01:19;;;;;;;15.80;9.90;;;8.00;99.90;;;;;;4940495;28;20495;-75
2023/02/15 13:03:58;;;;;;;14.10;10.00;;;8.00;99.90;;;;;;4959530;28;20530;-75
2023/02/15 13:06:37;;;;;;;15.33;9.67;;;8.00;99.90;;;;;;4968806;28;20457;-75
2023/02/15 13:09:23;;;;;;;18.20;9.63;;;8.00;99.90;;;;;;4935339;29;21014;-74
2023/02/15 13:11:53;;;;;;;17.27;10.77;;;8.00;99.90;;;;;;4951710;28;20453;-75
2023/02/15 13:14:19;;;;;;;15.90;10.20;;;8.10;99.90;;;;;;4968044;28;20484;-75
2023/02/15 13:16:51;;;;;;;15.30;9.83;;;8.10;99.90;;;;;;4934157;29;20444;-73
2023/02/15 13:19:26;;;;;;;19.80;10.97;;;8.10;99.90;;;;;;4944512;29;20517;-74
2023/02/15 13:21:57;;;;;;;14.57;10.47;;;8.20;99.90;;;;;;4944620;28;20490;-74
2023/02/15 13:24:33;;;;;;;11.90;8.83;;;8.20;99.90;;;;;;4962214;28;20415;-74
2023/02/15 13:27:01;;;;;;;13.80;9.40;;;8.20;99.90;;;;;;4951101;28;20482;-74
2023/02/15 13:29:35;;;;;;;13.27;9.73;;;8.20;99.90;;;;;;4958837;28;20840;-74